Aérodrome :
LOGIN :

S'inscrire | Disclaimer

   EN    FR    IT 

 










Légende :    VFR   VFR Marginal   IFR   IFR Intensif   IFR Très Intensif
Visi : 
Plafond : 
>= 8 km
>= 3000ft
5 à 8 km
1000 à 3000 ft
1500m à 5 km
500 à 1000 ft
800 à 1500m
200 à 500 ft
< 800m
< 200 ft
Symboles :   Orages  Brouillard  Fortes neiges  Fortes précipitations  Vent > 20 kt
SIGMETs :   Divers  Orages  Givrage  Turbulence  Onde Orograph.  Cendres Volcan.







- Altitude de l'aérodrome : 327 ft
- Code IATA : BHX
- Voir les cartes d'approche


EGBB - Birmingham

DERNIER METAR :
  • 161650Z 18009KT 9999 SCT045 20/11 Q1015

METARs EXPIRÉS :
  • 161620Z 19010KT 150V240 9999 SCT045 21/11 Q1015
  • 161550Z 19010KT 160V220 9999 SCT028 21/11 Q1015
  • 161520Z 18009KT 150V230 9999 SCT039 20/12 Q1015
  • 161450Z 19009KT 9999 SCT039 20/11 Q1016
  • 161420Z 20009KT 170V240 9999 SCT040 20/11 Q1016

TAF TAF EGBB
Valide du 16 à 12h jusqu'au 17 à 12h UTC


161059Z 1612/1712 19008KT 9999 FEW045
PROB30
TEMPO 1619/1621 8000 -RA
TEMPO 1621/1707 8000 -RA BKN014
PROB30
TEMPO 1700/1704 4500 +RA BKN009
PROB30
TEMPO 1704/1706 BKN004
ATIS : +44 121 780 0910
Pas de NOTAMs connus pour ce terrain.



MET'MAP, la Météo Aéronautique d'un coup d'oeil ! - Copyright ORBIFLY Décembre 2007 - Disclaimer

ORBIFLY MET'MAP TEAM :

Programmation & Développement : Alexandra Zaïnal
Conception & Développement : Baudouin d'Aumeries
Co-Programmation & Développement : Marc-Olivier Méhu
Soutien technique & logistique : Manuel Goepfert

Contact : metmap@orbifly.com




SOURCES & CREDITS :

   NOAA